Time;durP1;ratioP1;P1;durP2;ratioP2;P2;SDS_P1;SDS_P2;PMS_P1;PMS_P2;Temp;Humidity;BMP_temperature;BMP_pressure;BME280_temperature;BME280_humidity;BME280_pressure;Samples;Min_cycle;Max_cycle;Signal;HPM_P1;HPM_P2
2024/01/10 00:01:43;;;;;;;1.63;1.53;;;;;;;23.57;100.00;56616.03;5017177;28;20235;-70
2024/01/10 00:04:09;;;;;;;1.70;1.60;;;;;;;;;;5021609;28;20315;-67
2024/01/10 00:06:36;;;;;;;2.57;2.37;;;;;;;-142.91;100.00;56616.03;5023615;28;20320;-66
2024/01/10 00:09:03;;;;;;;1.63;1.52;;;;;;;;;;5022614;28;20875;-70
2024/01/10 00:11:31;;;;;;;1.88;1.67;;;;;;;23.26;100.00;56616.03;5034108;28;20203;-67
2024/01/10 00:13:59;;;;;;;2.50;1.90;;;;;;;;;;5023886;28;20249;-66
2024/01/10 00:16:26;;;;;;;2.23;1.50;;;;;;;;;;5022198;28;20214;-67
2024/01/10 00:18:52;;;;;;;2.83;2.00;;;;;;;23.33;100.00;56616.03;5028698;28;20291;-68
2024/01/10 00:21:19;;;;;;;2.63;2.40;;;;;;;;;;5040408;28;20305;-68
2024/01/10 00:23:45;;;;;;;2.10;1.90;;;;;;;23.25;100.00;56616.03;5025598;28;20785;-68
2024/01/10 00:26:12;;;;;;;1.80;1.70;;;;;;;23.90;100.00;56616.03;5029796;28;20234;-67
2024/01/10 00:28:40;;;;;;;1.77;1.67;;;;;;;-142.91;100.00;56616.03;5037474;28;20659;-68
2024/01/10 00:31:07;;;;;;;4.73;1.90;;;;;;;33.65;100.00;56616.03;5036073;28;20289;-70
2024/01/10 00:33:33;;;;;;;2.77;2.40;;;;;;;-142.91;100.00;56616.03;5018493;28;20222;-68
2024/01/10 00:36:01;;;;;;;2.40;2.20;;;;;;;23.57;100.00;56616.03;4999903;28;20234;-68
2024/01/10 00:38:27;;;;;;;1.80;1.70;;;;;;;;;;5004376;28;20302;-69
2024/01/10 00:40:53;;;;;;;1.67;1.57;;;;;;;;;;5010319;28;20291;-69
2024/01/10 00:43:20;;;;;;;5.13;2.27;;;;;;;23.41;100.00;56616.03;5009411;28;20291;-70
2024/01/10 00:45:48;;;;;;;2.50;2.30;;;;;;;23.57;100.00;56616.03;5020136;28;20724;-68
2024/01/10 00:48:17;;;;;;;3.63;2.37;;;;;;;23.57;100.00;56616.03;5019401;28;20215;-69
2024/01/10 00:50:44;;;;;;;1.90;1.80;;;;;;;23.41;100.00;56616.03;5011894;28;20318;-69
2024/01/10 00:53:10;;;;;;;1.90;1.80;;;;;;;;;;5035363;28;20253;-71
2024/01/10 00:55:36;;;;;;;3.10;2.33;;;;;;;;;;5039723;28;20322;-70
2024/01/10 00:58:03;;;;;;;6.87;2.53;;;;;;;23.26;100.00;56616.03;5039165;28;20230;-70
2024/01/10 01:00:30;;;;;;;2.70;1.85;;;;;;;23.26;100.00;56616.03;5038390;28;20233;-69
2024/01/10 01:02:58;;;;;;;1.90;1.80;;;;;;;23.26;100.00;56616.03;5017479;28;20235;-68
2024/01/10 01:05:24;;;;;;;4.97;1.93;;;;;;;;;;5015857;28;20298;-67
2024/01/10 01:07:51;;;;;;;1.90;1.60;;;;;;;23.33;100.00;56616.03;5005630;28;20202;-66
2024/01/10 01:10:17;;;;;;;3.57;2.27;;;;;;;23.90;100.00;56616.03;4999303;28;20243;-65
2024/01/10 01:12:44;;;;;;;2.17;2.00;;;;;;;23.26;100.00;56616.03;5011074;28;21052;-67
2024/01/10 01:15:10;;;;;;;2.22;2.05;;;;;;;;;;5009795;28;20286;-67
2024/01/10 01:17:37;;;;;;;5.30;2.00;;;;;;;;;;5008802;28;20282;-67
2024/01/10 01:20:06;;;;;;;4.43;2.10;;;;;;;-142.91;100.00;56616.03;5017121;28;20210;-67
2024/01/10 01:22:33;;;;;;;2.77;2.40;;;;;;;;;;5017126;28;20957;-68
2024/01/10 01:24:59;;;;;;;2.17;1.97;;;;;;;;;;5000131;28;20207;-68
2024/01/10 01:27:26;;;;;;;2.05;1.95;;;;;;;23.57;100.00;56616.03;5011028;28;20259;-67
2024/01/10 01:29:52;;;;;;;2.50;2.07;;;;;;;;;;5012692;28;20287;-66
2024/01/10 01:32:19;;;;;;;2.70;2.47;;;;;;;-142.91;100.00;56616.03;5019396;28;20203;-67
2024/01/10 01:34:45;;;;;;;1.80;1.70;;;;;;;;;;5022685;28;20318;-68
2024/01/10 01:37:13;;;;;;;2.53;1.57;;;;;;;;;;5017577;28;20297;-65
2024/01/10 01:39:40;;;;;;;1.80;1.70;;;;;;;;;;5016688;28;20590;-66
2024/01/10 01:42:06;;;;;;;3.27;2.00;;;;;;;;;;5036036;28;20226;-66
2024/01/10 01:44:32;;;;;;;2.60;2.28;;;;;;;;;;5019484;28;20290;-67
2024/01/10 01:46:59;;;;;;;2.33;2.13;;;;;;;23.25;100.00;56616.03;5016355;28;20415;-67
2024/01/10 01:49:26;;;;;;;1.90;1.77;;;;;;;23.41;100.00;56616.03;5010313;28;20199;-66
2024/01/10 01:51:53;;;;;;;3.53;2.00;;;;;;;;;;5007200;28;20343;-66
2024/01/10 01:54:21;;;;;;;2.10;2.00;;;;;;;;;;5017628;28;20681;-66
2024/01/10 01:56:48;;;;;;;2.63;2.17;;;;;;;;;;5004072;28;20231;-66
2024/01/10 01:59:14;;;;;;;2.53;2.33;;;;;;;;;;5016091;28;20624;-67
2024/01/10 02:01:41;;;;;;;2.30;2.10;;;;;;;;;;5012120;28;20286;-67
2024/01/10 02:04:08;;;;;;;3.63;2.10;;;;;;;-142.91;100.00;56616.03;5001757;28;20282;-67
2024/01/10 02:06:34;;;;;;;2.05;1.95;;;;;;;;;;5014598;28;20765;-68
2024/01/10 02:09:01;;;;;;;1.75;1.63;;;;;;;;;;5006443;28;20262;-67
2024/01/10 02:11:29;;;;;;;2.15;1.73;;;;;;;23.41;100.00;56616.03;5016580;28;20286;-68
2024/01/10 02:13:55;;;;;;;1.40;1.30;;;;;;;;;;5026974;28;20227;-67
2024/01/10 02:16:22;;;;;;;2.30;2.10;;;;;;;;;;5018403;28;20231;-67
2024/01/10 02:18:49;;;;;;;1.87;1.67;;;;;;;23.26;100.00;56616.03;5032709;28;20207;-68
2024/01/10 02:21:15;;;;;;;3.60;1.85;;;;;;;;;;5026026;28;20258;-67
2024/01/10 02:23:42;;;;;;;3.30;1.90;;;;;;;;;;5024582;28;20291;-67
2024/01/10 02:26:10;;;;;;;3.10;1.93;;;;;;;;;;5031021;28;20287;-67
2024/01/10 02:28:36;;;;;;;1.93;1.60;;;;;;;-142.91;100.00;56616.03;5031178;28;20290;-67
2024/01/10 02:31:03;;;;;;;1.83;1.70;;;;;;;;;;5021359;28;20304;-66
2024/01/10 02:33:30;;;;;;;1.65;1.55;;;;;;;23.41;100.00;56616.03;5034070;28;20783;-68
2024/01/10 02:35:56;;;;;;;1.70;1.60;;;;;;;;;;5018818;28;20341;-67
2024/01/10 02:38:23;;;;;;;1.60;1.50;;;;;;;;;;5020969;28;20295;-68
2024/01/10 02:40:50;;;;;;;3.77;1.73;;;;;;;;;;5024607;28;20693;-67
2024/01/10 02:43:17;;;;;;;2.00;1.90;;;;;;;;;;5016735;28;20318;-66
2024/01/10 02:45:44;;;;;;;2.33;1.75;;;;;;;23.57;100.00;56616.03;5024216;28;20610;-67
2024/01/10 02:48:11;;;;;;;2.67;1.63;;;;;;;-142.91;100.00;56616.03;5027468;28;20283;-67
2024/01/10 02:50:38;;;;;;;1.93;1.53;;;;;;;;;;5026130;28;20327;-67
2024/01/10 02:53:05;;;;;;;2.50;2.30;;;;;;;;;;5025035;28;20751;-66
2024/01/10 02:55:31;;;;;;;2.47;2.07;;;;;;;;;;5016224;28;20405;-67
2024/01/10 02:57:58;;;;;;;5.47;2.42;;;;;;;-142.91;100.00;56616.03;5008209;28;20669;-67
2024/01/10 03:00:25;;;;;;;2.40;2.20;;;;;;;;;;5023542;28;20299;-68
2024/01/10 03:02:52;;;;;;;1.87;1.77;;;;;;;23.26;100.00;56616.03;5011479;28;20727;-68
2024/01/10 03:05:18;;;;;;;2.30;2.10;;;;;;;;;;5018991;28;20295;-67
2024/01/10 03:07:45;;;;;;;1.40;1.40;;;;;;;-142.91;100.00;56616.03;5013306;28;20214;-67
2024/01/10 03:10:12;;;;;;;1.55;1.45;;;;;;;-142.91;100.00;56616.03;5018849;28;20236;-65
2024/01/10 03:12:38;;;;;;;1.43;1.40;;;;;;;;;;5008041;28;20295;-67
2024/01/10 03:15:06;;;;;;;2.53;1.40;;;;;;;;;;5018825;28;20291;-67
2024/01/10 03:17:35;;;;;;;1.63;1.53;;;;;;;;;;5016503;28;20329;-67
2024/01/10 03:20:02;;;;;;;9.30;1.50;;;;;;;;;;5012901;28;20989;-66
2024/01/10 03:22:28;;;;;;;1.67;1.58;;;;;;;;;;5009379;28;20223;-67
2024/01/10 03:24:55;;;;;;;1.10;1.00;;;;;;;;;;5016974;28;20290;-69
2024/01/10 03:27:21;;;;;;;2.80;1.40;;;;;;;-142.91;100.00;56616.03;5013924;28;20235;-66
2024/01/10 03:29:48;;;;;;;1.57;1.47;;;;;;;;;;5023690;28;20291;-67
2024/01/10 03:32:14;;;;;;;1.40;1.30;;;;;;;;;;5019711;28;20286;-67
2024/01/10 03:34:43;;;;;;;2.00;1.80;;;;;;;;;;5022538;28;20752;-66
2024/01/10 03:37:09;;;;;;;2.00;1.90;;;;;;;;;;5021212;28;20331;-67
2024/01/10 03:39:36;;;;;;;11.53;1.57;;;;;;;23.57;100.00;56616.03;5022507;28;20338;-66
2024/01/10 03:42:02;;;;;;;1.90;1.40;;;;;;;;;;5020029;28;20295;-67
2024/01/10 03:44:29;;;;;;;2.70;1.53;;;;;;;-142.91;100.00;56616.03;5018093;28;20298;-67
2024/01/10 03:46:56;;;;;;;2.22;1.80;;;;;;;-142.91;100.00;56616.03;5003339;28;20212;-65
2024/01/10 03:49:22;;;;;;;1.55;1.45;;;;;;;;;;5010605;28;20307;-66
2024/01/10 03:51:50;;;;;;;3.33;1.77;;;;;;;-142.91;100.00;56616.03;5010945;28;21847;-67
2024/01/10 03:54:16;;;;;;;1.75;1.65;;;;;;;;;;5016505;28;20307;-68
2024/01/10 03:56:43;;;;;;;1.77;1.67;;;;;;;-142.91;100.00;56616.03;5013986;28;20315;-67
2024/01/10 03:59:09;;;;;;;2.33;1.90;;;;;;;;;;5020048;28;20313;-66
2024/01/10 04:01:39;;;;;;;2.28;2.08;;;;;;;;;;5020863;28;20475;-67
2024/01/10 04:04:05;;;;;;;3.67;2.72;;;;;;;;;;5018081;28;20212;-67
2024/01/10 04:06:32;;;;;;;4.40;2.97;;;;;;;-142.91;100.00;56616.03;5021407;28;20653;-67
2024/01/10 04:08:59;;;;;;;9.38;3.17;;;;;;;;;;5024346;28;20318;-68
2024/01/10 04:11:26;;;;;;;5.70;4.75;;;;;;;-142.91;100.00;56616.03;5022436;28;20262;-67
2024/01/10 04:13:52;;;;;;;7.78;4.90;;;;;;;;;;5019102;28;20673;-67
2024/01/10 04:16:19;;;;;;;6.00;4.57;;;;;;;;;;5024281;28;20224;-66
2024/01/10 04:18:45;;;;;;;6.82;4.70;;;;;;;;;;5020020;28;20200;-66
2024/01/10 04:21:12;;;;;;;13.70;4.50;;;;;;;;;;5007022;28;20228;-67
2024/01/10 04:23:39;;;;;;;4.57;3.77;;;;;;;;;;5016179;28;20230;-67
2024/01/10 04:26:08;;;;;;;6.83;4.50;;;;;;;-142.91;100.00;56616.03;5013780;28;20239;-67
2024/01/10 04:28:34;;;;;;;5.20;4.07;;;;;;;;;;5019591;28;20740;-67
2024/01/10 04:31:01;;;;;;;6.37;3.83;;;;;;;23.25;100.00;56616.03;5029481;28;20302;-67
2024/01/10 04:33:28;;;;;;;3.60;3.10;;;;;;;-142.91;100.00;56616.03;5024513;28;20231;-68
2024/01/10 04:35:54;;;;;;;3.20;2.67;;;;;;;;;;5023561;28;20784;-66
2024/01/10 04:38:20;;;;;;;3.17;2.87;;;;;;;;;;5010233;28;20581;-66
2024/01/10 04:40:47;;;;;;;6.80;3.00;;;;;;;-142.91;100.00;56616.03;4999943;28;20673;-66
2024/01/10 04:43:15;;;;;;;5.73;3.40;;;;;;;;;;5017525;28;20303;-67
2024/01/10 04:45:41;;;;;;;8.63;5.03;;;;;;;;;;5014228;28;20279;-67
2024/01/10 04:48:09;;;;;;;12.90;5.53;;;;;;;-142.91;100.00;56616.03;5003805;28;20213;-68
2024/01/10 04:50:35;;;;;;;12.77;5.77;;;;;;;;;;5024360;28;20656;-68
2024/01/10 04:53:01;;;;;;;7.97;4.55;;;;;;;;;;5021718;28;20290;-67
2024/01/10 04:55:28;;;;;;;9.27;4.93;;;;;;;-142.91;100.00;56616.03;5028564;28;20863;-66
2024/01/10 04:57:55;;;;;;;9.80;5.80;;;;;;;;;;5028411;28;20215;-68
2024/01/10 05:00:23;;;;;;;16.63;6.30;;;;;;;;;;5027090;28;20987;-66
2024/01/10 05:02:49;;;;;;;9.82;4.80;;;;;;;-142.91;100.00;56616.03;5029568;28;20234;-66
2024/01/10 05:05:16;;;;;;;4.03;3.63;;;;;;;;;;5041782;28;20755;-67
2024/01/10 05:07:42;;;;;;;11.95;6.60;;;;;;;;;;5036021;28;20342;-67
2024/01/10 05:10:09;;;;;;;4.17;2.97;;;;;;;44.04;100.00;56616.03;5036537;28;20286;-67
2024/01/10 05:12:35;;;;;;;8.23;2.58;;;;;;;;;;5024948;28;20290;-67
2024/01/10 05:15:02;;;;;;;3.05;2.60;;;;;;;;;;5022338;28;20299;-67
2024/01/10 05:17:30;;;;;;;9.63;4.90;;;;;;;44.04;100.00;56616.03;5017674;28;20232;-67
2024/01/10 05:19:56;;;;;;;6.17;3.87;;;;;;;;;;5022069;28;20238;-67
2024/01/10 05:22:22;;;;;;;8.27;4.47;;;;;;;;;;5029727;28;20649;-67
2024/01/10 05:24:49;;;;;;;8.95;4.95;;;;;;;;;;5029594;28;20291;-69
2024/01/10 05:27:15;;;;;;;5.95;3.88;;;;;;;;;;5025551;28;20761;-68
2024/01/10 05:29:42;;;;;;;6.83;3.03;;;;;;;;;;5024439;28;20265;-68
2024/01/10 05:32:08;;;;;;;3.67;2.97;;;;;;;;;;5028982;28;20279;-68
2024/01/10 05:34:36;;;;;;;11.13;3.03;;;;;;;;;;5029260;28;20303;-68
2024/01/10 05:37:03;;;;;;;9.33;5.30;;;;;;;64.84;100.00;56616.03;5034413;28;20251;-68
2024/01/10 05:39:30;;;;;;;4.45;3.90;;;;;;;;;;5032299;28;20269;-67
2024/01/10 05:41:56;;;;;;;2.67;2.47;;;;;;;;;;5017934;28;20760;-68
2024/01/10 05:44:23;;;;;;;7.30;2.80;;;;;;;;;;5006565;28;20287;-66
2024/01/10 05:46:49;;;;;;;3.63;2.73;;;;;;;;;;5023277;28;20227;-69
2024/01/10 05:49:15;;;;;;;4.83;3.33;;;;;;;;;;5028067;28;20326;-68
2024/01/10 05:51:43;;;;;;;4.20;2.77;;;;;;;-142.91;100.00;56616.03;5029636;28;20323;-68
2024/01/10 05:54:10;;;;;;;4.90;2.10;;;;;;;;;;5024995;28;20211;-68
2024/01/10 05:56:36;;;;;;;2.60;2.25;;;;;;;-142.91;100.00;56616.03;5025646;28;20219;-68
2024/01/10 05:59:03;;;;;;;3.43;2.90;;;;;;;;;;5019278;28;20287;-69
2024/01/10 06:01:29;;;;;;;11.73;3.93;;;;;;;;;;5020396;28;20414;-69
2024/01/10 06:03:56;;;;;;;7.90;3.33;;;;;;;;;;5024897;28;20200;-67
2024/01/10 06:06:22;;;;;;;5.88;3.38;;;;;;;;;;5026717;28;20655;-66
2024/01/10 06:08:51;;;;;;;5.63;3.13;;;;;;;44.04;100.00;56616.03;5025185;28;20196;-71
2024/01/10 06:11:17;;;;;;;13.97;4.43;;;;;;;;;;5021682;28;20286;-69
2024/01/10 06:13:43;;;;;;;22.30;5.17;;;;;;;;;;5025603;28;21367;-66
2024/01/10 06:16:10;;;;;;;6.87;5.13;;;;;;;;;;5026441;28;20318;-68
2024/01/10 06:18:36;;;;;;;10.13;5.53;;;;;;;-142.91;100.00;56616.03;5025847;28;20311;-69
2024/01/10 06:21:04;;;;;;;9.10;5.13;;;;;;;;;;5026892;28;20303;-68
2024/01/10 06:23:30;;;;;;;5.70;4.53;;;;;;;;;;5025785;28;20207;-66
2024/01/10 06:25:58;;;;;;;5.35;4.18;;;;;;;;;;5026700;28;20292;-69
2024/01/10 06:28:24;;;;;;;7.87;4.80;;;;;;;;;;5024949;28;21334;-67
2024/01/10 06:30:52;;;;;;;8.87;4.63;;;;;;;-142.91;100.00;56616.03;5027308;28;20235;-69
2024/01/10 06:33:19;;;;;;;4.80;4.13;;;;;;;;;;5025107;28;20250;-67
2024/01/10 06:35:46;;;;;;;7.97;4.67;;;;;;;;;;5025921;28;20644;-70
2024/01/10 06:38:13;;;;;;;5.40;4.53;;;;;;;;;;5025170;28;20319;-67
2024/01/10 06:40:40;;;;;;;8.48;3.33;;;;;;;;;;5025671;28;20235;-68
2024/01/10 06:43:08;;;;;;;3.83;3.23;;;;;;;;;;5025598;28;20204;-69
2024/01/10 06:45:35;;;;;;;5.13;3.70;;;;;;;;;;5012481;28;20287;-69
2024/01/10 06:48:01;;;;;;;5.10;3.33;;;;;;;23.41;100.00;56616.03;5018003;28;20296;-71
2024/01/10 06:50:28;;;;;;;5.75;3.75;;;;;;;;;;5020496;28;20315;-68
2024/01/10 06:52:54;;;;;;;6.20;3.83;;;;;;;;;;5017232;28;20310;-67
2024/01/10 06:55:22;;;;;;;3.70;3.33;;;;;;;;;;5018189;28;20299;-67
2024/01/10 06:57:48;;;;;;;4.80;3.07;;;;;;;-142.91;100.00;56616.03;5021575;28;20273;-67
2024/01/10 07:00:17;;;;;;;5.30;3.37;;;;;;;;;;5020977;28;20599;-67
2024/01/10 07:02:44;;;;;;;3.37;2.93;;;;;;;-142.91;100.00;56616.03;5021566;28;20297;-66
2024/01/10 07:05:10;;;;;;;4.18;3.15;;;;;;;44.04;100.00;56616.03;5019348;28;20667;-67
2024/01/10 07:07:37;;;;;;;8.77;3.42;;;;;;;;;;5012439;28;20291;-70
2024/01/10 07:10:04;;;;;;;3.35;2.92;;;;;;;-142.91;100.00;56616.03;5019347;28;20220;-69
2024/01/10 07:12:31;;;;;;;9.00;4.30;;;;;;;-142.91;100.00;56616.03;5019709;28;20207;-69
2024/01/10 07:14:58;;;;;;;9.80;5.65;;;;;;;;;;5020545;28;20259;-70
2024/01/10 07:17:26;;;;;;;7.97;5.23;;;;;;;;;;5016522;28;20701;-69
2024/01/10 07:19:52;;;;;;;9.98;4.35;;;;;;;;;;5013922;28;20769;-66
2024/01/10 07:22:19;;;;;;;7.18;5.50;;;;;;;;;;5018133;28;20248;-69
2024/01/10 07:24:46;;;;;;;10.43;5.10;;;;;;;;;;5013216;28;20649;-70
2024/01/10 07:27:14;;;;;;;9.15;4.38;;;;;;;;;;5013653;28;20299;-68
2024/01/10 07:29:41;;;;;;;9.43;5.30;;;;;;;;;;5012624;28;20200;-68
2024/01/10 07:32:10;;;;;;;9.35;5.60;;;;;;;;;;5020798;28;20291;-67
2024/01/10 07:34:38;;;;;;;13.38;6.78;;;;;;;;;;5018137;28;20313;-69
2024/01/10 07:37:05;;;;;;;5.75;4.90;;;;;;;;;;5012812;28;20677;-69
2024/01/10 07:39:31;;;;;;;7.45;5.40;;;;;;;;;;5015078;28;20239;-69
2024/01/10 07:41:58;;;;;;;12.60;6.35;;;;;;;;;;5016352;28;20292;-68
2024/01/10 07:44:26;;;;;;;10.45;6.38;;;;;;;;;;5016404;28;20665;-68
2024/01/10 07:46:54;;;;;;;21.05;6.22;;;;;;;;;;5016506;28;20195;-69
2024/01/10 07:49:23;;;;;;;14.35;6.28;;;;;;;-142.91;100.00;56616.03;5014667;28;20224;-68
2024/01/10 07:51:51;;;;;;;15.77;6.45;;;;;;;;;;5016002;28;20231;-68
2024/01/10 07:54:17;;;;;;;20.30;7.25;;;;;;;;;;5018271;28;20741;-69
2024/01/10 07:56:44;;;;;;;10.02;6.05;;;;;;;;;;5014514;28;20315;-69
2024/01/10 07:59:13;;;;;;;7.28;5.85;;;;;;;;;;5013810;28;20299;-68
2024/01/10 08:01:39;;;;;;;6.60;4.80;;;;;;;;;;5010595;28;20220;-67
2024/01/10 08:04:07;;;;;;;11.15;5.03;;;;;;;;;;5012949;28;20718;-68
2024/01/10 08:06:35;;;;;;;26.50;10.50;;;;;;;;;;5019485;28;20651;-68
2024/01/10 08:09:04;;;;;;;28.88;11.75;;;;;;;;;;5012420;28;20291;-67
2024/01/10 08:11:30;;;;;;;34.05;11.48;;;;;;;;;;5013236;28;20301;-67
2024/01/10 08:13:57;;;;;;;20.58;9.40;;;;;;;;;;5016241;28;20295;-67
2024/01/10 08:16:23;;;;;;;8.35;5.70;;;;;;;-142.91;100.00;56616.03;5013557;28;20235;-69
2024/01/10 08:18:50;;;;;;;8.23;4.72;;;;;;;;;;5018545;28;20756;-68
2024/01/10 08:21:16;;;;;;;5.15;2.65;;;;;;;-142.91;100.00;56616.03;5012838;28;20303;-67
2024/01/10 08:23:43;;;;;;;3.95;3.05;;;;;;;-142.91;100.00;56616.03;5016508;28;20208;-69
2024/01/10 08:26:11;;;;;;;3.60;2.55;;;;;;;-142.91;100.00;56616.03;5015508;28;20236;-68
2024/01/10 08:28:37;;;;;;;2.97;2.78;;;;;;;;;;5014227;28;20205;-68
2024/01/10 08:31:04;;;;;;;3.97;3.58;;;;;;;;;;5014296;28;20761;-69
2024/01/10 08:33:31;;;;;;;5.10;3.80;;;;;;;;;;5013925;28;20298;-68
2024/01/10 08:35:58;;;;;;;6.15;4.13;;;;;;;;;;5017388;28;20665;-68
2024/01/10 08:38:25;;;;;;;6.93;3.10;;;;;;;;;;5017552;28;20224;-68
2024/01/10 08:40:51;;;;;;;10.65;5.00;;;;;;;;;;5020052;28;20299;-68
2024/01/10 08:43:19;;;;;;;4.85;3.83;;;;;;;;;;5015078;28;20677;-67
2024/01/10 08:45:45;;;;;;;4.90;3.80;;;;;;;;;;5012236;28;20308;-67
2024/01/10 08:48:13;;;;;;;6.13;4.70;;;;;;;;;;5015341;28;20204;-68
2024/01/10 08:50:39;;;;;;;5.15;4.65;;;;;;;;;;5014852;28;20243;-68
2024/01/10 08:53:06;;;;;;;5.53;4.25;;;;;;;;;;5015628;28;20295;-69
2024/01/10 08:55:33;;;;;;;9.38;3.95;;;;;;;;;;5014783;28;20302;-72
2024/01/10 08:58:00;;;;;;;4.63;4.05;;;;;;;;;;5014424;28;20227;-69
2024/01/10 09:00:28;;;;;;;8.07;4.40;;;;;;;;;;5016407;28;20299;-70
2024/01/10 09:02:55;;;;;;;7.53;4.50;;;;;;;;;;5015755;28;20206;-67
2024/01/10 09:05:22;;;;;;;4.30;3.90;;;;;;;;;;5012548;28;20692;-68
2024/01/10 09:07:48;;;;;;;5.47;4.65;;;;;;;;;;5016852;28;20690;-68
2024/01/10 09:10:15;;;;;;;5.38;4.60;;;;;;;;;;5019524;28;20204;-69
2024/01/10 09:12:45;;;;;;;11.45;6.13;;;;;;;;;;5017923;28;20283;-69
2024/01/10 09:15:13;;;;;;;11.18;6.10;;;;;;;;;;5013520;28;20761;-68
2024/01/10 09:17:41;;;;;;;13.13;6.70;;;;;;;;;;5012115;28;20259;-69
2024/01/10 09:20:08;;;;;;;25.38;8.10;;;;;;;;;;5013520;28;20303;-69
2024/01/10 09:22:35;;;;;;;12.60;5.10;;;;;;;23.25;100.00;56616.03;5014992;28;20310;-69
2024/01/10 09:25:04;;;;;;;8.57;4.43;;;;;;;-142.91;100.00;56616.03;5017974;28;20298;-68
2024/01/10 09:27:31;;;;;;;8.85;3.28;;;;;;;23.25;100.00;56616.03;5015860;28;20322;-67
2024/01/10 09:29:57;;;;;;;12.95;4.68;;;;;;;;;;5017628;28;20211;-70
2024/01/10 09:32:24;;;;;;;3.75;3.15;;;;;;;;;;5023229;28;20307;-68
2024/01/10 09:34:51;;;;;;;6.97;3.38;;;;;;;;;;5018151;28;20287;-71
2024/01/10 09:37:18;;;;;;;3.17;2.88;;;;;;;;;;5016229;28;20288;-70
2024/01/10 09:39:44;;;;;;;4.75;3.17;;;;;;;;;;5020438;28;20310;-72
2024/01/10 09:42:11;;;;;;;4.05;2.20;;;;;;;;;;5019718;28;20203;-70
2024/01/10 09:44:37;;;;;;;4.40;2.92;;;;;;;23.26;100.00;56616.03;5014698;28;20212;-68
2024/01/10 09:47:05;;;;;;;8.52;3.30;;;;;;;;;;5016352;28;20291;-70
2024/01/10 09:49:32;;;;;;;3.97;3.08;;;;;;;;;;5016165;28;20688;-67
2024/01/10 09:52:00;;;;;;;5.72;3.33;;;;;;;;;;5012231;28;20256;-69
2024/01/10 09:54:30;;;;;;;3.58;2.75;;;;;;;;;;5022731;28;20291;-69
2024/01/10 09:56:56;;;;;;;4.97;3.25;;;;;;;;;;5024244;28;20284;-74
2024/01/10 09:59:23;;;;;;;2.47;2.33;;;;;;;;;;5023477;28;20204;-68
2024/01/10 10:01:49;;;;;;;4.53;3.08;;;;;;;;;;5022671;28;20215;-70
2024/01/10 10:04:16;;;;;;;6.65;3.22;;;;;;;;;;5017435;28;20287;-72
2024/01/10 10:06:43;;;;;;;5.75;3.28;;;;;;;;;;5017760;28;20207;-69
2024/01/10 10:09:11;;;;;;;8.73;4.07;;;;;;;;;;5014674;28;20288;-72
2024/01/10 10:11:37;;;;;;;3.28;2.97;;;;;;;;;;5009828;28;20660;-70
2024/01/10 10:14:14;;;;;;;3.97;3.42;;;;;;;;;;5014791;28;20304;-69
2024/01/10 10:16:41;;;;;;;4.65;2.95;;;;;;;;;;5014882;28;20292;-68
2024/01/10 10:19:09;;;;;;;6.75;3.80;;;;;;;;;;5004760;28;20216;-72
2024/01/10 10:21:35;;;;;;;10.13;6.30;;;;;;;;;;5006814;28;20220;-70
2024/01/10 10:24:03;;;;;;;7.75;3.60;;;;;;;;;;5005974;28;20294;-69
2024/01/10 10:26:33;;;;;;;4.63;2.97;;;;;;;;;;5011282;28;20219;-69
2024/01/10 10:29:00;;;;;;;11.20;3.60;;;;;;;;;;5019304;28;20288;-69
2024/01/10 10:31:26;;;;;;;4.18;3.03;;;;;;;;;;5022223;28;20282;-70
2024/01/10 10:33:53;;;;;;;6.90;3.15;;;;;;;;;;5011285;28;20291;-70
2024/01/10 10:36:20;;;;;;;3.08;2.88;;;;;;;;;;5011066;28;20299;-69
2024/01/10 10:38:48;;;;;;;3.97;3.58;;;;;;;;;;5022759;28;20281;-71
2024/01/10 10:41:15;;;;;;;4.13;3.17;;;;;;;-142.91;100.00;56616.03;5020462;28;20205;-68
2024/01/10 10:43:43;;;;;;;3.45;3.15;;;;;;;-142.91;100.00;56616.03;5021070;28;20235;-70
2024/01/10 10:46:12;;;;;;;6.20;3.55;;;;;;;;;;5019395;28;20303;-68
2024/01/10 10:48:38;;;;;;;4.38;3.97;;;;;;;;;;5022238;28;20215;-71
2024/01/10 10:51:07;;;;;;;4.32;3.55;;;;;;;;;;5013317;28;20376;-70
2024/01/10 10:53:34;;;;;;;4.90;3.78;;;;;;;;;;5014691;28;20208;-69
2024/01/10 10:56:01;;;;;;;8.50;4.43;;;;;;;;;;5019950;28;20211;-70
2024/01/10 10:58:28;;;;;;;4.93;4.57;;;;;;;;;;5020030;28;20244;-70
2024/01/10 11:00:56;;;;;;;8.40;4.40;;;;;;;;;;5010842;28;20212;-70
2024/01/10 11:03:24;;;;;;;4.80;4.20;;;;;;;;;;5012848;28;20322;-70
2024/01/10 11:05:51;;;;;;;4.55;3.70;;;;;;;;;;5013817;28;20645;-69
2024/01/10 11:08:18;;;;;;;5.38;4.35;;;;;;;;;;5022141;28;20282;-70
2024/01/10 11:10:45;;;;;;;8.32;4.28;;;;;;;;;;5014493;28;20284;-70
2024/01/10 11:13:24;;;;;;;11.50;3.92;;;;;;;;;;5013266;28;20299;-71
2024/01/10 11:16:14;;;;;;;7.95;4.55;;;;;;;-142.91;100.00;56616.03;5013400;28;20294;-69
2024/01/10 11:18:49;;;;;;;7.63;5.15;;;;;;;;;;5015716;28;20759;-70
2024/01/10 11:21:20;;;;;;;5.47;4.75;;;;;;;;;;5024249;28;20234;-70
2024/01/10 11:23:48;;;;;;;8.63;5.40;;;;;;;;;;5022916;28;20228;-68
2024/01/10 11:26:15;;;;;;;7.72;5.20;;;;;;;;;;5021412;28;20283;-69
2024/01/10 11:28:42;;;;;;;8.23;5.65;;;;;;;;;;5020106;28;20628;-70
2024/01/10 11:31:09;;;;;;;8.43;5.45;;;;;;;;;;5024094;28;20797;-69
2024/01/10 11:33:39;;;;;;;10.50;5.32;;;;;;;;;;5012080;28;20240;-69
2024/01/10 11:36:15;;;;;;;8.13;5.57;;;;;;;;;;5019550;28;20570;-68
2024/01/10 11:38:48;;;;;;;10.50;6.30;;;;;;;;;;5015640;28;20223;-70
2024/01/10 11:41:20;;;;;;;14.20;6.13;;;;;;;;;;5014688;28;20240;-69
2024/01/10 11:43:47;;;;;;;11.13;5.10;;;;;;;;;;5016082;28;20306;-70
2024/01/10 11:46:15;;;;;;;13.63;6.20;;;;;;;;;;5016495;28;20736;-71
2024/01/10 11:48:42;;;;;;;7.65;5.70;;;;;;;;;;5014515;28;20200;-70
2024/01/10 11:51:09;;;;;;;8.63;5.57;;;;;;;-142.91;100.00;56616.03;5024074;28;20270;-71
2024/01/10 11:53:39;;;;;;;15.57;6.82;;;;;;;;;;5019481;28;20307;-71
2024/01/10 11:56:10;;;;;;;9.85;5.47;;;;;;;;;;5020857;28;20269;-72
2024/01/10 11:58:51;;;;;;;8.52;5.82;;;;;;;;;;5016128;28;20215;-69
2024/01/10 12:01:19;;;;;;;12.20;6.13;;;;;;;;;;5021796;28;20294;-69
2024/01/10 12:03:46;;;;;;;7.93;5.85;;;;;;;;;;5017322;28;20307;-69
2024/01/10 12:06:13;;;;;;;13.38;6.68;;;;;;;;;;5018603;28;20223;-71
2024/01/10 12:08:39;;;;;;;14.23;7.05;;;;;;;;;;5014508;28;20290;-70
2024/01/10 12:11:06;;;;;;;10.55;6.20;;;;;;;;;;5014657;28;20383;-69
2024/01/10 12:13:33;;;;;;;8.45;6.50;;;;;;;;;;5016798;28;20232;-70
2024/01/10 12:15:59;;;;;;;8.70;6.47;;;;;;;;;;5018663;28;20567;-70
2024/01/10 12:18:27;;;;;;;11.48;6.20;;;;;;;;;;5020720;28;20307;-71
2024/01/10 12:20:53;;;;;;;10.10;6.22;;;;;;;;;;5018036;28;20319;-72
2024/01/10 12:23:19;;;;;;;13.15;6.38;;;;;;;;;;5016874;28;20303;-71
2024/01/10 12:25:46;;;;;;;21.48;6.15;;;;;;;;;;5019052;28;20290;-70
2024/01/10 12:28:16;;;;;;;9.45;6.38;;;;;;;;;;5013811;28;20663;-69
2024/01/10 12:30:42;;;;;;;12.63;6.75;;;;;;;;;;5015741;28;20204;-72
2024/01/10 12:33:09;;;;;;;11.32;6.75;;;;;;;;;;5012238;28;20667;-72
2024/01/10 12:35:41;;;;;;;12.10;7.47;;;;;;;;;;5018241;28;20290;-72
2024/01/10 12:38:07;;;;;;;10.68;7.13;;;;;;;;;;5019760;28;20284;-69
2024/01/10 12:40:34;;;;;;;13.30;6.10;;;;;;;;;;5016210;28;20378;-71
2024/01/10 12:43:04;;;;;;;14.98;7.43;;;;;;;;;;5014440;28;20291;-71
2024/01/10 12:45:30;;;;;;;12.48;7.57;;;;;;;;;;5015059;28;20204;-69
2024/01/10 12:47:58;;;;;;;23.63;7.65;;;;;;;;;;5014507;28;20299;-69
2024/01/10 12:50:25;;;;;;;9.70;7.10;;;;;;;;;;5020362;28;20315;-70
2024/01/10 12:52:53;;;;;;;13.50;7.18;;;;;;;;;;5011965;28;20290;-69
2024/01/10 12:55:19;;;;;;;12.77;7.32;;;;;;;;;;5009114;28;20291;-72
2024/01/10 12:57:46;;;;;;;11.05;6.57;;;;;;;;;;5011320;28;20287;-74
2024/01/10 13:00:14;;;;;;;10.38;6.72;;;;;;;;;;5013185;28;20318;-73
2024/01/10 13:02:40;;;;;;;13.13;7.15;;;;;;;;;;5016519;28;20291;-70
2024/01/10 13:05:09;;;;;;;9.30;7.00;;;;;;;;;;5018141;28;20286;-69
2024/01/10 13:07:35;;;;;;;10.55;7.82;;;;;;;;;;5019058;28;20730;-70
2024/01/10 13:10:03;;;;;;;12.75;5.80;;;;;;;-142.91;100.00;56616.03;5021739;28;20310;-71
2024/01/10 13:12:31;;;;;;;12.50;6.30;;;;;;;-142.91;100.00;56616.03;5021624;28;20227;-70
2024/01/10 13:14:57;;;;;;;15.35;6.57;;;;;;;;;;5021319;28;20214;-70
2024/01/10 13:17:23;;;;;;;11.10;7.18;;;;;;;;;;5019340;28;20290;-71
2024/01/10 13:19:50;;;;;;;11.50;7.07;;;;;;;-142.91;100.00;56616.03;5012849;28;20319;-72
2024/01/10 13:22:19;;;;;;;11.35;7.60;;;;;;;;;;5015958;28;20315;-68
2024/01/10 13:24:46;;;;;;;7.75;6.07;;;;;;;-142.91;100.00;56616.03;5007538;28;20204;-68
2024/01/10 13:27:14;;;;;;;9.30;6.63;;;;;;;;;;5014131;28;20209;-70
2024/01/10 13:29:41;;;;;;;12.90;6.50;;;;;;;;;;5015887;28;20279;-70
2024/01/10 13:32:10;;;;;;;17.95;6.55;;;;;;;;;;5017574;28;20303;-68
2024/01/10 13:34:37;;;;;;;17.05;7.28;;;;;;;;;;5015950;28;20204;-69
2024/01/10 13:37:04;;;;;;;10.88;6.55;;;;;;;24.55;0.00;143547.69;5020928;28;20623;-70
2024/01/10 13:39:31;;;;;;;9.38;7.05;;;;;;;;;;5018376;28;20226;-70